Time;durP1;ratioP1;P1;durP2;ratioP2;P2;SDS_P1;SDS_P2;PMS_P1;PMS_P2;Temp;Humidity;BMP_temperature;BMP_pressure;BME280_temperature;BME280_humidity;BME280_pressure;Samples;Min_cycle;Max_cycle;Signal;HPM_P1;HPM_P2
2022/09/15 00:00:31;;;;;;;5.35;3.78;;;;;;;13.14;100.00;97417.72;4236063;27;20043;-73
2022/09/15 00:02:31;;;;;;;4.65;3.40;;;;;;;13.15;100.00;97428.41;4236168;28;20096;-73
2022/09/15 00:04:32;;;;;;;4.15;3.03;;;;;;;13.15;100.00;97420.06;4236706;27;20054;-74
2022/09/15 00:06:33;;;;;;;6.85;4.03;;;;;;;13.14;100.00;97417.72;4236348;27;20483;-73
2022/09/15 00:08:34;;;;;;;5.03;3.40;;;;;;;13.14;100.00;97418.50;4235794;27;20505;-73
2022/09/15 00:10:34;;;;;;;6.13;3.60;;;;;;;13.13;100.00;97416.94;4236867;27;20201;-73
2022/09/15 00:12:35;;;;;;;4.63;3.40;;;;;;;13.16;100.00;97432.78;4239932;27;20088;-73
2022/09/15 00:14:35;;;;;;;5.60;3.97;;;;;;;13.15;100.00;97439.50;4239109;27;20069;-73
2022/09/15 00:16:36;;;;;;;5.35;3.78;;;;;;;13.14;100.00;97442.72;4239906;27;20047;-73
2022/09/15 00:18:37;;;;;;;5.43;3.72;;;;;;;13.14;100.00;97442.72;4239229;27;20039;-73
2022/09/15 00:20:43;;;;;;;4.38;3.20;;;;;;;13.11;100.00;97438.81;4239753;27;20100;-73
2022/09/15 00:22:43;;;;;;;6.22;3.80;;;;;;;13.13;100.00;97441.94;4239860;27;20471;-73
2022/09/15 00:24:48;;;;;;;5.93;3.80;;;;;;;13.16;100.00;97445.88;4239261;27;20046;-73
2022/09/15 00:26:48;;;;;;;5.03;3.80;;;;;;;13.14;100.00;97440.72;4239641;27;20054;-73
2022/09/15 00:28:49;;;;;;;4.78;3.50;;;;;;;13.15;100.00;97453.41;4237554;27;20050;-73
2022/09/15 00:30:52;;;;;;;6.18;4.28;;;;;;;13.16;100.00;97454.22;4239958;27;20064;-73
2022/09/15 00:32:52;;;;;;;4.93;3.30;;;;;;;13.15;100.00;97447.84;4240751;27;20068;-73
2022/09/15 00:34:52;;;;;;;6.65;4.35;;;;;;;13.13;100.00;97443.94;4240951;27;20050;-73
2022/09/15 00:36:52;;;;;;;6.88;4.80;;;;;;;13.16;100.00;97445.88;4239462;27;20043;-73
2022/09/15 00:38:54;;;;;;;8.60;4.82;;;;;;;13.18;100.00;97447.03;4220611;27;20040;-73
2022/09/15 00:40:56;;;;;;;8.45;5.18;;;;;;;13.14;100.00;97446.28;4238885;27;20044;-73
2022/09/15 00:42:56;;;;;;;6.40;4.32;;;;;;;13.14;100.00;97449.06;4239426;27;21108;-73
2022/09/15 00:45:00;;;;;;;6.90;4.70;;;;;;;13.12;100.00;97451.47;4239169;27;20429;-73
2022/09/15 00:47:03;;;;;;;6.95;4.90;;;;;;;13.11;100.00;97449.13;4239384;27;20051;-73
2022/09/15 00:49:13;;;;;;;6.75;4.07;;;;;;;13.15;100.00;97456.19;4238763;27;20475;-73
2022/09/15 00:51:18;;;;;;;7.28;5.03;;;;;;;13.16;100.00;97457.00;4238959;27;20055;-73
2022/09/15 00:53:19;;;;;;;5.55;4.15;;;;;;;13.16;100.00;97463.34;4239128;27;20047;-73
2022/09/15 00:55:27;;;;;;;9.50;4.68;;;;;;;13.16;100.00;97465.31;4238954;27;20099;-73
2022/09/15 00:57:56;;;;;;;6.25;4.47;;;;;;;13.19;100.00;97473.63;4239192;27;20318;-73
2022/09/15 00:59:59;;;;;;;9.35;5.30;;;;;;;13.20;100.00;97474.41;4238576;27;20475;-73
2022/09/15 01:02:07;;;;;;;6.60;4.22;;;;;;;13.16;100.00;97468.88;4238518;27;20122;-73
2022/09/15 01:04:08;;;;;;;6.70;4.38;;;;;;;13.16;100.00;97459.78;4239016;27;20386;-73
2022/09/15 01:06:16;;;;;;;7.55;4.65;;;;;;;13.17;100.00;97458.56;4238908;27;20042;-73
2022/09/15 01:08:24;;;;;;;8.27;5.00;;;;;;;13.18;100.00;97462.91;4239259;27;20034;-73
2022/09/15 01:10:29;;;;;;;8.85;5.28;;;;;;;13.17;100.00;97462.13;4238061;27;20035;-73
2022/09/15 01:12:30;;;;;;;9.25;5.10;;;;;;;13.17;100.00;97461.34;4238486;27;20039;-73
2022/09/15 01:14:30;;;;;;;8.95;5.35;;;;;;;13.17;100.00;97466.91;4238540;27;20383;-73
2022/09/15 01:16:33;;;;;;;8.88;5.57;;;;;;;13.18;100.00;97463.69;4238772;27;20482;-73
2022/09/15 01:19:01;;;;;;;8.43;5.90;;;;;;;13.19;100.00;97459.72;4237913;27;20050;-73
2022/09/15 01:21:05;;;;;;;12.57;7.90;;;;;;;13.02;100.00;97460.75;4238515;27;20047;-73
2022/09/15 01:23:31;;;;;;;13.90;8.65;;;;;;;13.04;100.00;97463.09;4237674;27;20406;-73
2022/09/15 01:25:58;;;;;;;14.82;9.35;;;;;;;12.99;100.00;97477.44;4237455;27;20085;-73
2022/09/15 01:28:23;;;;;;;19.73;9.80;;;;;;;12.89;100.00;97468.84;4238996;27;20402;-73
2022/09/15 01:30:24;;;;;;;17.95;9.85;;;;;;;12.80;100.00;97471.38;4239085;27;20580;-73
2022/09/15 01:33:04;;;;;;;18.85;10.48;;;;;;;12.75;100.00;97471.06;4238571;27;20047;-73
2022/09/15 01:35:26;;;;;;;14.10;9.85;;;;;;;12.69;100.00;97465.19;4238450;27;20582;-73
2022/09/15 01:37:35;;;;;;;20.17;10.17;;;;;;;12.59;100.00;97458.56;4238233;27;20150;-73
2022/09/15 01:39:42;;;;;;;20.13;10.70;;;;;;;12.52;100.00;97458.66;4238577;27;20153;-73
2022/09/15 01:41:47;;;;;;;20.33;11.60;;;;;;;12.50;100.00;97461.06;4238095;27;20047;-73
2022/09/15 01:44:01;;;;;;;17.95;11.10;;;;;;;12.45;100.00;97463.50;4237115;27;20054;-73
2022/09/15 01:46:02;;;;;;;19.08;10.68;;;;;;;12.52;100.00;97463.41;4238072;27;20043;-73
2022/09/15 01:48:05;;;;;;;19.73;11.33;;;;;;;12.49;100.00;97467.00;4238495;27;20141;-73
2022/09/15 01:50:10;;;;;;;19.75;11.13;;;;;;;12.47;100.00;97469.41;4237220;27;20536;-73
2022/09/15 01:52:15;;;;;;;23.35;11.90;;;;;;;12.47;100.00;97470.19;4237814;27;20092;-73
2022/09/15 01:54:23;;;;;;;20.17;11.23;;;;;;;12.47;100.00;97469.41;4237460;27;20325;-73
2022/09/15 01:56:24;;;;;;;21.80;11.05;;;;;;;12.47;100.00;97464.66;4238413;27;20050;-73
2022/09/15 01:58:24;;;;;;;20.52;11.57;;;;;;;12.46;100.00;97463.09;4219178;28;20496;-73
2022/09/15 02:00:25;;;;;;;26.45;13.02;;;;;;;12.45;100.00;97455.97;4238367;27;20050;-73
2022/09/15 02:02:34;;;;;;;20.88;12.30;;;;;;;12.41;100.00;97462.75;4237800;27;20860;-73
2022/09/15 02:04:38;;;;;;;28.50;12.30;;;;;;;12.39;100.00;97457.63;4237835;27;20058;-73
2022/09/15 02:07:10;;;;;;;22.63;12.85;;;;;;;12.42;100.00;97456.81;4237841;27;20058;-73
2022/09/15 02:09:25;;;;;;;23.50;12.07;;;;;;;12.42;100.00;97458.78;4236347;27;20382;-73
2022/09/15 02:11:26;;;;;;;19.40;11.43;;;;;;;12.47;100.00;97459.09;4237948;27;20039;-73
2022/09/15 02:13:52;;;;;;;23.23;12.48;;;;;;;12.42;100.00;97456.03;4238219;27;20126;-73
2022/09/15 02:15:58;;;;;;;21.80;12.20;;;;;;;12.42;100.00;97459.56;4236912;27;20047;-73
2022/09/15 02:18:04;;;;;;;20.77;11.55;;;;;;;12.45;100.00;97455.19;4238177;27;20140;-73
2022/09/15 02:20:09;;;;;;;19.85;11.32;;;;;;;12.40;100.00;97453.63;4237113;27;20043;-73
2022/09/15 02:22:28;;;;;;;21.80;13.10;;;;;;;12.39;100.00;97449.28;4237525;27;20378;-73
2022/09/15 02:24:36;;;;;;;22.55;11.88;;;;;;;12.40;100.00;97450.06;4237278;27;20051;-73
2022/09/15 02:26:39;;;;;;;18.05;11.85;;;;;;;12.38;100.00;97444.94;4236114;27;20039;-73
2022/09/15 02:28:41;;;;;;;17.98;11.70;;;;;;;12.42;100.00;97450.47;4237042;27;20047;-73
2022/09/15 02:30:45;;;;;;;21.27;11.43;;;;;;;12.39;100.00;97454.84;4237732;27;20050;-73
2022/09/15 02:32:54;;;;;;;19.35;12.20;;;;;;;12.41;100.00;97452.44;4237476;27;20074;-73
2022/09/15 02:34:57;;;;;;;18.23;11.02;;;;;;;12.43;100.00;97458.38;4236560;27;20043;-73
2022/09/15 02:36:59;;;;;;;22.30;12.10;;;;;;;12.44;100.00;97451.63;4237166;27;20442;-73
2022/09/15 02:39:06;;;;;;;20.42;11.45;;;;;;;12.40;100.00;97445.31;4236704;27;20103;-73
2022/09/15 02:41:07;;;;;;;16.95;10.98;;;;;;;12.44;100.00;97445.28;4237539;27;20043;-73
2022/09/15 02:43:11;;;;;;;18.15;11.43;;;;;;;12.44;100.00;97459.16;4237167;27;20040;-73
2022/09/15 02:45:11;;;;;;;21.55;12.27;;;;;;;12.42;100.00;97450.47;4237534;27;20277;-73
2022/09/15 02:47:12;;;;;;;20.50;12.13;;;;;;;12.39;100.00;97446.53;4237161;27;20467;-73
2022/09/15 02:49:13;;;;;;;22.23;11.88;;;;;;;12.38;100.00;97451.28;4236823;27;20386;-73
2022/09/15 02:51:13;;;;;;;24.30;11.02;;;;;;;12.42;100.00;97447.69;4237085;27;20515;-73
2022/09/15 02:53:13;;;;;;;21.48;11.88;;;;;;;12.40;100.00;97447.31;4237023;27;20027;-73
2022/09/15 02:55:15;;;;;;;21.95;12.32;;;;;;;12.39;100.00;97435.44;4237207;27;20491;-73
2022/09/15 02:57:15;;;;;;;15.65;9.68;;;;;;;12.42;100.00;97442.94;4237064;27;20047;-73
2022/09/15 02:59:15;;;;;;;19.70;11.38;;;;;;;12.44;100.00;97450.84;4236958;27;20046;-73
2022/09/15 03:01:16;;;;;;;18.15;10.85;;;;;;;12.40;100.00;97444.53;4237040;27;20067;-73
2022/09/15 03:03:17;;;;;;;19.45;11.63;;;;;;;12.36;100.00;97442.59;4236929;27;20129;-73
2022/09/15 03:05:24;;;;;;;18.02;10.93;;;;;;;12.37;100.00;97446.16;4237177;27;20058;-73
2022/09/15 03:07:24;;;;;;;18.23;10.35;;;;;;;12.38;100.00;97448.50;4236730;27;20050;-73
2022/09/15 03:09:25;;;;;;;17.60;10.45;;;;;;;12.41;100.00;97457.19;4235840;27;20028;-73
2022/09/15 03:11:26;;;;;;;19.35;11.07;;;;;;;12.45;100.00;97463.50;4235258;27;20057;-73
2022/09/15 03:13:27;;;;;;;17.63;10.48;;;;;;;12.48;100.00;97452.34;4236013;27;20443;-73
2022/09/15 03:15:27;;;;;;;16.38;9.98;;;;;;;12.45;100.00;97460.72;4235141;27;20080;-73
2022/09/15 03:17:27;;;;;;;21.52;11.30;;;;;;;12.41;100.00;97449.66;4235685;27;20433;-73
2022/09/15 03:19:28;;;;;;;19.45;10.73;;;;;;;12.37;100.00;97448.94;4232981;27;20122;-73
2022/09/15 03:21:29;;;;;;;19.58;11.40;;;;;;;12.35;100.00;97454.91;4235549;27;20128;-73
2022/09/15 03:23:29;;;;;;;20.00;11.43;;;;;;;12.34;100.00;97460.88;4234105;27;20341;-73
2022/09/15 03:25:31;;;;;;;22.92;13.20;;;;;;;12.36;100.00;97458.44;4235669;27;20047;-73
2022/09/15 03:27:32;;;;;;;20.15;12.05;;;;;;;12.33;100.00;97457.31;4236439;27;20475;-73
2022/09/15 03:29:33;;;;;;;17.50;11.00;;;;;;;12.33;100.00;97454.53;4234045;27;20085;-73
2022/09/15 03:31:33;;;;;;;25.38;11.90;;;;;;;12.35;100.00;97459.66;4233211;27;20478;-73
2022/09/15 03:33:34;;;;;;;18.35;10.45;;;;;;;12.34;100.00;97449.78;4236354;27;20066;-73
2022/09/15 03:35:35;;;;;;;19.50;11.65;;;;;;;12.38;100.00;97451.28;4236133;27;20046;-73
2022/09/15 03:37:35;;;;;;;17.38;11.05;;;;;;;12.38;100.00;97451.28;4235747;27;20039;-73
2022/09/15 03:39:36;;;;;;;20.88;11.30;;;;;;;12.37;100.00;97452.50;4235057;27;20074;-73
2022/09/15 03:41:37;;;;;;;19.10;10.88;;;;;;;12.40;100.00;97461.16;4235472;27;20264;-73
2022/09/15 03:43:39;;;;;;;18.52;11.00;;;;;;;12.38;100.00;97465.16;4236751;27;20073;-73
2022/09/15 03:45:39;;;;;;;20.80;9.90;;;;;;;12.37;100.00;97463.59;4235796;27;20070;-73
2022/09/15 03:47:39;;;;;;;18.73;9.90;;;;;;;12.36;100.00;97473.09;4235580;27;20440;-73
2022/09/15 03:49:40;;;;;;;12.98;9.13;;;;;;;12.34;100.00;97460.88;4235080;27;20043;-73
2022/09/15 03:51:40;;;;;;;16.38;9.43;;;;;;;12.36;100.00;97461.22;4234749;27;20046;-73
2022/09/15 03:53:41;;;;;;;13.20;8.63;;;;;;;12.33;100.00;97468.41;4235803;27;20082;-73
2022/09/15 03:55:42;;;;;;;16.38;9.30;;;;;;;12.34;100.00;97467.19;4236468;27;20054;-73
2022/09/15 03:57:42;;;;;;;12.55;8.65;;;;;;;12.35;100.00;97462.44;4236097;27;20040;-73
2022/09/15 03:59:43;;;;;;;12.25;8.50;;;;;;;12.36;100.00;97473.09;4235041;27;20499;-73
2022/09/15 04:01:44;;;;;;;13.45;8.73;;;;;;;12.34;100.00;97469.19;4234987;28;20122;-73
2022/09/15 04:03:45;;;;;;;14.85;8.63;;;;;;;12.34;100.00;97467.19;4235887;27;20212;-73
2022/09/15 04:05:46;;;;;;;16.85;9.90;;;;;;;12.33;100.00;97465.63;4235272;27;20123;-73
2022/09/15 04:07:46;;;;;;;14.80;8.48;;;;;;;12.34;100.00;97463.63;4235216;28;20051;-73
2022/09/15 04:09:47;;;;;;;13.35;7.95;;;;;;;12.35;100.00;97471.53;4235232;27;20081;-73
2022/09/15 04:11:47;;;;;;;16.25;8.48;;;;;;;12.35;100.00;97473.53;4235672;27;20162;-73
2022/09/15 04:13:47;;;;;;;12.13;8.15;;;;;;;12.35;100.00;97484.63;4235238;28;20454;-73
2022/09/15 04:16:06;;;;;;;13.70;7.97;;;;;;;12.35;100.00;97481.84;4234997;27;20104;-73
2022/09/15 04:18:07;;;;;;;16.45;8.80;;;;;;;12.32;100.00;97477.09;4234510;28;20647;-73
2022/09/15 04:20:08;;;;;;;18.73;9.43;;;;;;;12.28;100.00;97488.25;4234644;27;20137;-73
2022/09/15 04:22:09;;;;;;;16.45;8.25;;;;;;;12.33;100.00;97484.25;4235020;27;20058;-73
2022/09/15 04:24:09;;;;;;;14.27;8.20;;;;;;;12.28;100.00;97485.47;4235194;27;20079;-73
2022/09/15 04:26:31;;;;;;;16.42;8.88;;;;;;;12.23;100.00;97483.16;4234977;27;20061;-73
2022/09/15 04:28:34;;;;;;;13.88;7.90;;;;;;;12.29;100.00;97487.06;4234287;27;20470;-73
2022/09/15 04:30:35;;;;;;;16.23;9.30;;;;;;;12.25;100.00;97480.78;4234339;27;20043;-73
2022/09/15 04:32:36;;;;;;;17.48;9.40;;;;;;;12.18;100.00;97477.28;4235392;27;20569;-73
2022/09/15 04:34:37;;;;;;;16.42;8.80;;;;;;;12.18;100.00;97483.63;4234922;28;20033;-73
2022/09/15 04:36:37;;;;;;;14.13;9.32;;;;;;;12.17;100.00;97484.03;4235214;27;20435;-73
2022/09/15 04:38:38;;;;;;;12.40;8.73;;;;;;;12.17;100.00;97484.03;4234909;27;20096;-73
2022/09/15 04:40:38;;;;;;;13.02;8.40;;;;;;;12.14;100.00;97488.41;4235004;28;20440;-73
2022/09/15 04:42:38;;;;;;;13.57;9.57;;;;;;;12.13;100.00;97488.81;4235637;27;20047;-73
2022/09/15 04:44:39;;;;;;;14.25;9.15;;;;;;;12.11;100.00;97485.69;4233497;27;20035;-73
2022/09/15 04:46:39;;;;;;;11.57;7.85;;;;;;;12.13;100.00;97486.03;4235673;27;20043;-73
2022/09/15 04:48:40;;;;;;;13.32;8.77;;;;;;;12.11;100.00;97483.69;4232996;27;20486;-73
2022/09/15 04:50:40;;;;;;;13.93;8.90;;;;;;;12.11;100.00;97478.16;4236604;27;20062;-73
2022/09/15 04:52:41;;;;;;;13.88;8.40;;;;;;;12.05;100.00;97482.56;4237259;27;20079;-73
2022/09/15 04:54:41;;;;;;;14.63;9.15;;;;;;;12.07;100.00;97480.16;4235607;27;20077;-73
2022/09/15 04:56:41;;;;;;;13.77;8.88;;;;;;;12.03;100.00;97482.19;4236759;27;20240;-73
2022/09/15 04:58:44;;;;;;;17.20;9.10;;;;;;;12.05;100.00;97479.78;4239176;27;20918;-73
2022/09/15 05:00:45;;;;;;;15.25;9.20;;;;;;;12.05;100.00;97486.13;4238998;27;20456;-73
2022/09/15 05:02:45;;;;;;;11.32;7.82;;;;;;;12.08;100.00;97482.53;4235724;27;20046;-73
2022/09/15 05:04:47;;;;;;;14.45;9.05;;;;;;;12.09;100.00;97488.88;4235580;27;20514;-73
2022/09/15 05:06:47;;;;;;;14.90;8.00;;;;;;;12.06;100.00;97487.69;4239618;27;20059;-73
2022/09/15 05:08:50;;;;;;;15.48;8.77;;;;;;;12.06;100.00;97486.91;4236862;27;20088;-73
2022/09/15 05:10:50;;;;;;;11.63;7.85;;;;;;;12.08;100.00;97490.03;4240429;27;20050;-73
2022/09/15 05:12:52;;;;;;;12.40;7.97;;;;;;;12.09;100.00;97486.09;4238741;27;20066;-73
2022/09/15 05:14:52;;;;;;;13.03;8.00;;;;;;;12.09;100.00;97489.66;4238947;27;20043;-73
2022/09/15 05:16:53;;;;;;;12.30;7.93;;;;;;;12.09;100.00;97488.88;4238895;27;20272;-73
2022/09/15 05:18:56;;;;;;;11.23;7.75;;;;;;;12.14;100.00;97488.41;4237862;27;20066;-73
2022/09/15 05:21:00;;;;;;;14.90;7.88;;;;;;;12.13;100.00;97499.91;4239164;27;20164;-73
2022/09/15 05:23:01;;;;;;;11.55;6.97;;;;;;;12.13;100.00;97495.16;4238769;27;21212;-73
2022/09/15 05:25:01;;;;;;;12.13;8.05;;;;;;;12.14;100.00;97498.72;4238624;27;20167;-73
2022/09/15 05:27:02;;;;;;;11.35;7.57;;;;;;;12.11;100.00;97503.09;4238237;27;20130;-73
2022/09/15 05:29:02;;;;;;;12.45;7.53;;;;;;;12.11;100.00;97505.88;4238056;27;20049;-73
2022/09/15 05:31:10;;;;;;;13.07;7.70;;;;;;;12.12;100.00;97503.88;4238800;27;20433;-73
2022/09/15 05:33:11;;;;;;;16.58;8.65;;;;;;;12.11;100.00;97502.31;4237117;27;20356;-73
2022/09/15 05:35:11;;;;;;;13.40;8.65;;;;;;;12.12;100.00;97493.59;4238148;27;20042;-73
2022/09/15 05:37:11;;;;;;;11.05;7.55;;;;;;;12.14;100.00;97516.13;4237709;27;20044;-73
2022/09/15 05:39:12;;;;;;;12.65;7.88;;;;;;;12.13;100.00;97508.22;4238323;27;20055;-73
2022/09/15 05:41:15;;;;;;;10.63;8.00;;;;;;;12.09;100.00;97509.06;4238684;27;20036;-73
2022/09/15 05:43:17;;;;;;;13.25;7.57;;;;;;;12.08;100.00;97512.22;4238216;27;20487;-73
2022/09/15 05:45:17;;;;;;;10.40;7.55;;;;;;;12.07;100.00;97511.44;4237998;27;20069;-73
2022/09/15 05:47:17;;;;;;;17.15;7.75;;;;;;;12.11;100.00;97516.97;4238404;27;20432;-73
2022/09/15 05:49:18;;;;;;;9.63;7.57;;;;;;;12.07;100.00;97516.19;4237432;27;20035;-73
2022/09/15 05:51:19;;;;;;;12.32;7.22;;;;;;;12.01;100.00;97515.88;4238440;27;20088;-73
2022/09/15 05:53:20;;;;;;;12.25;6.90;;;;;;;12.00;100.00;97514.31;4238054;27;20599;-73
2022/09/15 05:55:20;;;;;;;9.43;6.45;;;;;;;12.04;100.00;97523.34;4238202;27;20126;-73
2022/09/15 05:57:21;;;;;;;10.45;6.13;;;;;;;12.03;100.00;97516.25;4239329;27;20081;-73
2022/09/15 05:59:21;;;;;;;10.93;7.15;;;;;;;11.99;100.00;97511.91;4238144;27;20039;-73
2022/09/15 06:01:23;;;;;;;9.30;5.80;;;;;;;11.96;100.00;97509.97;4237736;27;20054;-73
2022/09/15 06:03:24;;;;;;;14.20;6.57;;;;;;;11.96;100.00;97513.53;4238319;27;20051;-73
2022/09/15 06:05:24;;;;;;;10.73;7.47;;;;;;;11.98;100.00;97518.66;4237835;27;20047;-73
2022/09/15 06:07:24;;;;;;;10.55;6.82;;;;;;;12.03;100.00;97518.22;4238330;27;20121;-73
2022/09/15 06:09:25;;;;;;;12.35;7.13;;;;;;;12.05;100.00;97519.38;4236947;27;20043;-73
2022/09/15 06:11:27;;;;;;;11.85;7.75;;;;;;;12.04;100.00;97520.59;4175597;27;20151;-73
2022/09/15 06:13:28;;;;;;;10.63;6.63;;;;;;;11.99;100.00;97534.09;4234188;27;20100;-73
2022/09/15 06:15:28;;;;;;;12.40;7.57;;;;;;;11.97;100.00;97531.75;4237366;27;20432;-73
2022/09/15 06:17:31;;;;;;;17.25;8.23;;;;;;;11.92;100.00;97529.44;4237115;27;20146;-73
2022/09/15 06:19:32;;;;;;;15.60;6.82;;;;;;;11.95;100.00;97530.59;4236702;27;20606;-73
2022/09/15 06:21:32;;;;;;;12.77;7.00;;;;;;;12.00;100.00;97527.38;4237112;27;20051;-73
2022/09/15 06:23:33;;;;;;;11.85;7.32;;;;;;;11.98;100.00;97525.00;4238009;27;20518;-73
2022/09/15 06:25:33;;;;;;;14.43;7.13;;;;;;;11.98;100.00;97527.75;4237235;27;20401;-73
2022/09/15 06:27:34;;;;;;;8.65;6.47;;;;;;;12.01;100.00;97528.94;4237666;27;20062;-73
2022/09/15 06:29:35;;;;;;;13.30;7.93;;;;;;;12.04;100.00;97534.44;4237311;27;20122;-73
2022/09/15 06:31:36;;;;;;;13.60;8.65;;;;;;;12.05;100.00;97529.69;4237212;27;20147;-73
2022/09/15 06:33:37;;;;;;;12.77;7.97;;;;;;;12.07;100.00;97535.59;4237072;27;20085;-73
2022/09/15 06:35:37;;;;;;;12.48;7.60;;;;;;;12.10;100.00;97532.03;4237429;27;20447;-73
2022/09/15 06:37:37;;;;;;;14.00;7.43;;;;;;;12.14;100.00;97532.75;4237393;27;20084;-73
2022/09/15 06:39:38;;;;;;;10.15;7.65;;;;;;;12.20;100.00;97533.91;4236845;27;20206;-73
2022/09/15 06:41:38;;;;;;;14.50;8.05;;;;;;;12.26;100.00;97543.34;4237130;27;20133;-73
2022/09/15 06:43:39;;;;;;;16.45;8.38;;;;;;;12.26;100.00;97543.34;4238340;27;20308;-73
2022/09/15 06:45:39;;;;;;;15.50;8.60;;;;;;;12.27;100.00;97536.59;4236973;27;20039;-73
2022/09/15 06:47:40;;;;;;;14.27;8.52;;;;;;;12.29;100.00;97541.72;4237049;27;20071;-73
2022/09/15 06:49:40;;;;;;;18.75;9.65;;;;;;;12.31;100.00;97551.22;4237712;27;20311;-73
2022/09/15 06:51:40;;;;;;;19.00;10.13;;;;;;;12.34;100.00;97553.19;4237288;27;20216;-73
2022/09/15 06:53:41;;;;;;;15.00;9.70;;;;;;;12.42;100.00;97555.88;4238579;27;20138;-73
2022/09/15 06:55:41;;;;;;;14.70;8.98;;;;;;;12.38;100.00;97556.69;4237172;27;20086;-73
2022/09/15 06:57:41;;;;;;;18.35;9.35;;;;;;;12.46;100.00;97556.63;4237184;27;20047;-73
2022/09/15 06:59:42;;;;;;;14.60;8.82;;;;;;;12.49;100.00;97567.66;4235506;27;20044;-73
2022/09/15 07:01:43;;;;;;;17.30;8.98;;;;;;;12.47;100.00;97569.28;4238004;27;20464;-73
2022/09/15 07:03:43;;;;;;;13.40;8.40;;;;;;;12.44;100.00;97576.47;4237929;27;20495;-73
2022/09/15 07:05:45;;;;;;;20.38;9.40;;;;;;;12.45;100.00;97578.03;4236736;27;20118;-72
2022/09/15 07:07:45;;;;;;;16.35;9.00;;;;;;;12.55;100.00;97573.56;4236459;27;20054;-73
2022/09/15 07:09:45;;;;;;;14.98;8.82;;;;;;;12.48;100.00;97577.19;4236499;27;20039;-73
2022/09/15 07:11:46;;;;;;;13.48;8.95;;;;;;;12.49;100.00;97576.00;4235863;27;20043;-73
2022/09/15 07:13:48;;;;;;;16.58;9.15;;;;;;;12.50;100.00;97579.56;4237733;27;20066;-73
2022/09/15 07:15:56;;;;;;;15.60;8.40;;;;;;;12.55;100.00;97571.56;4236602;27;20802;-73
2022/09/15 07:17:58;;;;;;;15.88;8.38;;;;;;;12.57;100.00;97573.94;4236946;27;20040;-73
2022/09/15 07:19:59;;;;;;;11.90;7.97;;;;;;;12.56;100.00;97573.13;4235629;27;20453;-73
2022/09/15 07:21:59;;;;;;;12.80;8.40;;;;;;;12.60;100.00;97573.13;4236292;27;20075;-73
2022/09/15 07:24:00;;;;;;;13.95;8.25;;;;;;;12.63;100.00;97566.72;4236013;27;20147;-73
2022/09/15 07:26:12;;;;;;;12.43;8.48;;;;;;;12.64;100.00;97571.88;4236866;27;20055;-73
2022/09/15 07:28:13;;;;;;;13.13;7.95;;;;;;;12.63;100.00;97575.06;4236396;27;20039;-73
2022/09/15 07:30:14;;;;;;;17.05;8.07;;;;;;;12.57;100.00;97590.56;4235030;27;20091;-73
2022/09/15 07:32:14;;;;;;;15.15;8.35;;;;;;;12.57;100.00;97594.13;4236905;27;20459;-73
2022/09/15 07:34:15;;;;;;;11.82;7.60;;;;;;;12.68;100.00;97605.13;4236155;27;20066;-73
2022/09/15 07:36:16;;;;;;;11.60;8.00;;;;;;;12.58;100.00;97598.50;4236868;27;20073;-73
2022/09/15 07:38:16;;;;;;;16.60;8.07;;;;;;;12.72;100.00;97597.56;4236882;27;20065;-73
2022/09/15 07:40:17;;;;;;;12.40;8.35;;;;;;;12.74;100.00;97602.69;4235989;27;20114;-73
2022/09/15 07:42:17;;;;;;;12.45;8.63;;;;;;;12.74;100.00;97605.47;4236514;27;20054;-73
2022/09/15 07:44:18;;;;;;;13.55;8.10;;;;;;;12.79;100.00;97605.00;4236334;27;20050;-73
2022/09/15 07:46:20;;;;;;;12.00;7.95;;;;;;;12.81;100.00;97606.16;4236399;27;20481;-73
2022/09/15 07:48:20;;;;;;;13.05;8.02;;;;;;;12.79;100.00;97608.56;4217813;28;20065;-73
2022/09/15 07:50:20;;;;;;;13.50;8.05;;;;;;;12.79;100.00;97616.13;4236098;27;20099;-73
2022/09/15 07:52:21;;;;;;;13.00;8.23;;;;;;;12.81;100.00;97619.25;4236679;27;20387;-73
2022/09/15 07:54:21;;;;;;;13.23;8.55;;;;;;;12.77;100.00;97618.53;4236018;27;20459;-73
2022/09/15 07:56:22;;;;;;;20.65;8.98;;;;;;;12.71;100.00;97620.16;4236294;27;20473;-73
2022/09/15 07:58:23;;;;;;;14.88;9.15;;;;;;;12.62;100.00;97613.13;4236037;27;20278;-73
2022/09/15 08:00:24;;;;;;;16.00;9.90;;;;;;;12.59;100.00;97611.19;4218035;28;20484;-73
2022/09/15 08:02:24;;;;;;;16.27;9.63;;;;;;;12.52;100.00;97624.34;4236282;27;20054;-73
2022/09/15 08:04:25;;;;;;;16.20;9.60;;;;;;;12.51;100.00;97611.66;4235779;27;20043;-73
2022/09/15 08:06:25;;;;;;;19.45;9.68;;;;;;;12.53;100.00;97618.38;4236481;27;20099;-73
2022/09/15 08:08:27;;;;;;;14.95;9.50;;;;;;;12.62;100.00;97615.91;4235735;28;20399;-73
2022/09/15 08:10:27;;;;;;;12.73;8.65;;;;;;;12.71;100.00;97623.72;4236030;27;20382;-72
2022/09/15 08:12:29;;;;;;;13.85;8.90;;;;;;;12.77;100.00;97615.75;4236309;27;20281;-73
2022/09/15 08:14:32;;;;;;;11.75;8.23;;;;;;;12.86;100.00;97618.81;4235773;27;20065;-73
2022/09/15 08:16:33;;;;;;;13.57;7.18;;;;;;;12.92;99.94;97617.16;4236162;27;20307;-73
2022/09/15 08:18:34;;;;;;;10.82;6.30;;;;;;;13.01;100.00;97622.22;4235447;27;20142;-73
2022/09/15 08:20:38;;;;;;;12.00;7.25;;;;;;;13.04;100.00;97621.38;4236248;27;20055;-73
2022/09/15 08:22:39;;;;;;;12.70;6.78;;;;;;;13.00;98.89;97624.22;4236080;27;20047;-73
2022/09/15 08:24:40;;;;;;;12.17;6.93;;;;;;;12.92;98.10;97614.41;4235812;27;20501;-74
2022/09/15 08:26:41;;;;;;;9.73;6.80;;;;;;;12.99;99.01;97624.59;4236044;27;20253;-73
2022/09/15 08:28:41;;;;;;;10.40;6.95;;;;;;;13.01;99.57;97620.22;4235707;27;20479;-73
2022/09/15 08:30:41;;;;;;;11.75;7.38;;;;;;;13.09;99.16;97626.50;4235437;27;20735;-73
2022/09/15 08:32:42;;;;;;;14.32;7.25;;;;;;;13.16;98.19;97623.63;4238407;27;20047;-73
2022/09/15 08:34:42;;;;;;;13.05;7.13;;;;;;;13.21;99.18;97621.19;4238885;27;20074;-73
2022/09/15 08:36:42;;;;;;;13.10;7.75;;;;;;;13.26;96.45;97625.50;4240050;27;20075;-73
2022/09/15 08:38:45;;;;;;;11.25;6.57;;;;;;;13.27;96.83;97627.09;4240059;27;20087;-73
2022/09/15 08:40:46;;;;;;;13.65;7.75;;;;;;;13.17;94.50;97622.44;4238867;27;20080;-73
2022/09/15 08:42:50;;;;;;;9.98;7.57;;;;;;;13.21;95.64;97623.97;4239531;27;20318;-73
2022/09/15 08:45:24;;;;;;;9.02;6.28;;;;;;;13.33;94.90;97632.97;4238388;27;20075;-73
2022/09/15 08:47:28;;;;;;;11.52;6.38;;;;;;;13.38;94.30;97630.50;4239448;27;20534;-73
2022/09/15 08:49:50;;;;;;;6.50;5.40;;;;;;;13.48;92.69;97620.44;4238419;27;20046;-73
2022/09/15 08:51:51;;;;;;;14.75;7.03;;;;;;;13.56;92.75;97629.47;4239400;27;20046;-73
2022/09/15 08:54:10;;;;;;;18.00;12.40;;;;;;;13.68;92.69;97626.91;4239036;27;20390;-73
2022/09/15 08:56:16;;;;;;;14.05;8.30;;;;;;;13.70;90.28;97632.06;4238287;27;20138;-73
2022/09/15 08:58:19;;;;;;;12.65;7.55;;;;;;;13.78;92.09;97636.31;4239256;27;20092;-73
2022/09/15 09:00:20;;;;;;;11.43;6.72;;;;;;;13.86;90.52;97635.00;4239594;27;20035;-73
2022/09/15 09:02:40;;;;;;;11.18;6.97;;;;;;;13.99;89.90;97638.00;4238741;27;20038;-73
2022/09/15 09:05:18;;;;;;;10.48;7.00;;;;;;;14.08;87.70;97640.22;4237924;27;20047;-73
2022/09/15 09:07:51;;;;;;;12.07;7.75;;;;;;;14.17;88.12;97643.25;4238505;27;20047;-73
2022/09/15 09:09:59;;;;;;;19.35;6.80;;;;;;;14.20;87.89;97634.84;4238163;27;20475;-73
2022/09/15 09:12:18;;;;;;;9.20;5.88;;;;;;;14.33;88.14;97643.41;4239117;27;20046;-73
2022/09/15 09:14:45;;;;;;;7.88;5.85;;;;;;;14.28;86.40;97638.31;4238325;27;20119;-73
2022/09/15 09:17:23;;;;;;;15.20;6.28;;;;;;;14.37;86.57;97640.53;4238251;27;20146;-73
2022/09/15 09:19:56;;;;;;;10.10;6.00;;;;;;;14.43;87.21;97644.41;4238150;27;20063;-73
2022/09/15 09:22:06;;;;;;;10.43;5.00;;;;;;;14.39;85.77;97638.91;4238364;27;20118;-73
2022/09/15 09:24:15;;;;;;;7.65;4.57;;;;;;;14.33;84.99;97630.25;4238234;27;20333;-73
2022/09/15 09:26:16;;;;;;;6.63;4.18;;;;;;;14.34;84.35;97631.84;4237883;27;20073;-73
2022/09/15 09:28:29;;;;;;;8.32;4.50;;;;;;;14.18;84.25;97628.94;4236484;27;20105;-73